»·PEaware :: N2144V KSBP-KSAN

N2144V :: KSBP-KSAN

FLIGHT INFORMATION

Flight Status: Arrived
Operator: Privately registered:
United States
More flights under this callsign
Pilot: Floris F. (3633)
Aircraft: CESSNA 500 CITATION 1
(C500)
More flights by this aircraft type
Origin: KSBP San Luis Co Regl
United States
Destination: KSAN San Diego Intl-Lindbergh
United States
More flights between these airports :: More routes between these airports
Route: RZS VTU V208 SXC CARDI MZB
File this flight plan on PilotEdge
Remarks: tec rte sban64
Altitude:
(Current/Filed)
11,000ft
Speed:
(Current/Filed)
285kts
Departed: 27-Apr-14 08:06 AM
Arrived: 27-Apr-14 09:18 AM
Distance/Time
Traveled:
804nm/1:12
Distance/Time
To Go:
Arrived

Flight Plot

Page will automatically refresh every two minutes.


Map Options




Map Legend


Flown Route
Filed Route
Departure Airport
Arrival Airport
Navaid (VOR, NDB)
Fix

Horizontal Profiles

Position Reports

Time Latitude Longitude Heading Altitude Ground
Speed
27-Apr-14 07:55 35.238375 -120.646141 0 214ft 0kts
27-Apr-14 07:56 35.238375 -120.646141 0 214ft 0kts
27-Apr-14 07:57 35.238375 -120.646141 0 214ft 0kts
27-Apr-14 07:58 35.238375 -120.646141 0 214ft 0kts
27-Apr-14 07:59 35.238375 -120.646141 0 214ft 0kts
27-Apr-14 08:00 35.238375 -120.646141 359 214ft 0kts
27-Apr-14 08:01 35.238182 -120.643177 87 214ft 17kts
27-Apr-14 08:02 35.236964 -120.638466 132 214ft 20kts
27-Apr-14 08:03 35.233580 -120.632419 171 214ft 13kts
27-Apr-14 08:04 35.233232 -120.632591 226 214ft 0kts
27-Apr-14 08:05 35.237679 -120.641521 305 337ft 96kts
27-Apr-14 08:06 35.259762 -120.680063 304 2291ft 164kts
27-Apr-14 08:07 35.286753 -120.730279 304 4894ft 193kts
27-Apr-14 08:08 35.319500 -120.790125 304 4998ft 228kts
27-Apr-14 08:09 35.325985 -120.861955 232 7037ft 214kts
27-Apr-14 08:10 35.271014 -120.857867 128 7990ft 247kts
27-Apr-14 08:11 35.240668 -120.781823 111 9753ft 232kts
27-Apr-14 08:12 35.214677 -120.706767 119 10985ft 267kts
27-Apr-14 08:13 35.168851 -120.628197 128 11001ft 290kts
27-Apr-14 08:14 35.116132 -120.554783 132 11006ft 285kts
27-Apr-14 08:15 35.062111 -120.483477 132 11012ft 285kts
27-Apr-14 08:16 35.008145 -120.412950 133 11014ft 284kts
27-Apr-14 08:17 34.953980 -120.342433 133 11016ft 284kts
27-Apr-14 08:18 34.899773 -120.272015 133 11013ft 284kts
27-Apr-14 08:19 34.845686 -120.201919 133 11016ft 284kts
27-Apr-14 08:19 34.800400 -120.143342 133 11010ft 284kts
27-Apr-14 08:21 34.737072 -120.061605 133 10999ft 284kts
27-Apr-14 08:21 34.691898 -120.003445 133 10990ft 284kts
27-Apr-14 08:22 34.636406 -119.932166 133 10989ft 284kts
27-Apr-14 08:23 34.581901 -119.862357 133 10987ft 285kts
27-Apr-14 08:24 34.527187 -119.792556 133 10983ft 284kts
27-Apr-14 08:25 34.478502 -119.717360 122 10983ft 285kts
27-Apr-14 08:26 34.436300 -119.635826 122 10985ft 284kts
27-Apr-14 08:27 34.393253 -119.555102 123 10988ft 284kts
27-Apr-14 08:28 34.349914 -119.475285 123 10991ft 283kts
27-Apr-14 08:30 34.306403 -119.395643 123 10989ft 282kts
27-Apr-14 08:31 34.262947 -119.316325 123 10984ft 282kts
27-Apr-14 08:32 34.219635 -119.237537 123 10980ft 281kts
27-Apr-14 08:33 34.176162 -119.158646 123 10977ft 281kts
27-Apr-14 08:34 34.132101 -119.080597 131 10989ft 281kts
27-Apr-14 08:35 34.060352 -119.045201 169 10999ft 283kts
27-Apr-14 08:36 33.981800 -119.034318 173 10997ft 284kts
27-Apr-14 08:37 33.902875 -119.026211 174 10996ft 284kts
27-Apr-14 08:38 33.824167 -119.018251 174 10995ft 284kts
27-Apr-14 08:39 33.758061 -118.973701 129 11007ft 282kts
27-Apr-14 08:40 33.709320 -118.899336 127 11009ft 282kts
27-Apr-14 08:41 33.660049 -118.825975 129 11014ft 282kts
27-Apr-14 08:42 33.609744 -118.753166 129 11000ft 283kts
27-Apr-14 08:43 33.559504 -118.681202 129 10996ft 281kts
27-Apr-14 08:44 33.508859 -118.608869 129 11004ft 281kts
27-Apr-14 08:45 33.458337 -118.536921 129 11012ft 281kts
27-Apr-14 08:46 33.407825 -118.465256 129 11019ft 282kts
27-Apr-14 08:47 33.367269 -118.386548 102 11024ft 282kts
27-Apr-14 08:48 33.356710 -118.293296 97 11016ft 282kts
27-Apr-14 08:49 33.346109 -118.200271 98 11008ft 283kts
27-Apr-14 08:50 33.334020 -118.107034 99 11002ft 283kts
27-Apr-14 08:51 33.321459 -118.013919 99 10990ft 283kts
27-Apr-14 08:52 33.308718 -117.920924 99 10962ft 282kts
27-Apr-14 08:53 33.295937 -117.828276 99 10958ft 283kts
27-Apr-14 08:54 33.283010 -117.735322 99 10955ft 283kts
27-Apr-14 08:55 33.269904 -117.642088 99 10949ft 284kts
27-Apr-14 08:56 33.242250 -117.555421 126 10951ft 284kts
27-Apr-14 08:57 33.189136 -117.485344 133 10952ft 284kts
27-Apr-14 08:58 33.131924 -117.421240 146 10055ft 272kts
27-Apr-14 08:59 33.067140 -117.382451 154 8557ft 252kts
27-Apr-14 09:00 33.004487 -117.348318 153 7095ft 241kts
27-Apr-14 09:01 32.942533 -117.314117 153 6920ft 246kts
27-Apr-14 09:02 32.880449 -117.279740 153 6921ft 245kts
27-Apr-14 09:03 32.833403 -117.227029 107 6932ft 248kts
27-Apr-14 09:04 32.819354 -117.146273 102 6926ft 248kts
27-Apr-14 09:05 32.806879 -117.065108 102 6940ft 246kts
27-Apr-14 09:06 32.794605 -116.984655 102 6208ft 240kts
27-Apr-14 09:07 32.782891 -116.907526 101 5087ft 225kts
27-Apr-14 09:08 32.738455 -116.879954 189 4943ft 195kts
27-Apr-14 09:09 32.684663 -116.897579 192 4286ft 199kts
27-Apr-14 09:10 32.672888 -116.952149 298 3940ft 190kts
27-Apr-14 09:11 32.688244 -117.001673 283 3250ft 136kts
27-Apr-14 09:12 32.697850 -117.042769 285 2434ft 124kts
27-Apr-14 09:13 32.707134 -117.080796 285 1926ft 114kts
27-Apr-14 09:14 32.715490 -117.116158 286 1454ft 110kts
27-Apr-14 09:15 32.723855 -117.150086 287 713ft 105kts
27-Apr-14 09:16 32.731523 -117.181331 284 42ft 87kts
27-Apr-14 09:17 32.733576 -117.191348 225 17ft 5kts
27-Apr-14 09:18 48.517464 -123.024019 356 119ft 0kts

Navigation Log

Ident Type
Flight plan parsing failed, navigation log unavailable